sensor_id;sensor_type;location;lat;lon;timestamp;noise_LAeq;noise_LA_min;noise_LA_max;noise_LA01;noise_LA95
64393;Laerm;50712;49.506;10.400;2023-07-31T00:00:28;54.47;49.31;67.03;;
64393;Laerm;50712;49.506;10.400;2023-07-31T00:00:59;55.86;48.75;62.89;;
64393;Laerm;50712;49.506;10.400;2023-07-31T00:01:29;58.30;48.38;64.33;;
64393;Laerm;50712;49.506;10.400;2023-07-31T00:01:59;57.91;49.30;62.98;;
64393;Laerm;50712;49.506;10.400;2023-07-31T00:02:30;58.87;48.03;64.39;;
64393;Laerm;50712;49.506;10.400;2023-07-31T00:03:00;59.21;50.14;64.05;;
64393;Laerm;50712;49.506;10.400;2023-07-31T00:03:30;58.79;51.39;64.86;;
64393;Laerm;50712;49.506;10.400;2023-07-31T00:04:01;59.32;49.76;65.06;;
64393;Laerm;50712;49.506;10.400;2023-07-31T00:04:31;58.67;49.09;64.58;;
64393;Laerm;50712;49.506;10.400;2023-07-31T00:05:02;53.85;48.14;59.40;;
64393;Laerm;50712;49.506;10.400;2023-07-31T00:05:33;53.71;48.89;58.92;;
64393;Laerm;50712;49.506;10.400;2023-07-31T00:06:03;52.74;48.56;58.24;;
64393;Laerm;50712;49.506;10.400;2023-07-31T00:06:33;52.66;47.96;61.86;;
64393;Laerm;50712;49.506;10.400;2023-07-31T00:07:04;54.66;47.67;60.43;;
64393;Laerm;50712;49.506;10.400;2023-07-31T00:07:36;54.73;49.26;60.77;;
64393;Laerm;50712;49.506;10.400;2023-07-31T00:08:06;54.86;49.14;60.96;;
64393;Laerm;50712;49.506;10.400;2023-07-31T00:08:37;54.43;48.76;59.49;;
64393;Laerm;50712;49.506;10.400;2023-07-31T00:09:07;55.72;48.81;62.32;;
64393;Laerm;50712;49.506;10.400;2023-07-31T00:09:37;56.19;48.82;61.97;;
64393;Laerm;50712;49.506;10.400;2023-07-31T00:10:08;54.93;48.99;62.08;;
64393;Laerm;50712;49.506;10.400;2023-07-31T00:10:38;56.10;49.36;63.13;;
64393;Laerm;50712;49.506;10.400;2023-07-31T00:11:09;60.27;52.68;68.09;;
64393;Laerm;50712;49.506;10.400;2023-07-31T00:11:39;63.90;58.72;68.12;;
64393;Laerm;50712;49.506;10.400;2023-07-31T00:12:09;63.63;56.43;68.06;;
64393;Laerm;50712;49.506;10.400;2023-07-31T00:12:43;61.62;54.94;65.83;;
64393;Laerm;50712;49.506;10.400;2023-07-31T00:13:13;60.89;55.63;65.25;;
64393;Laerm;50712;49.506;10.400;2023-07-31T00:13:44;61.43;55.14;65.26;;
64393;Laerm;50712;49.506;10.400;2023-07-31T00:14:14;62.17;57.70;66.60;;
64393;Laerm;50712;49.506;10.400;2023-07-31T00:14:44;61.34;54.29;65.45;;
64393;Laerm;50712;49.506;10.400;2023-07-31T00:15:15;62.60;55.59;66.95;;
64393;Laerm;50712;49.506;10.400;2023-07-31T00:15:45;62.54;57.96;67.31;;
64393;Laerm;50712;49.506;10.400;2023-07-31T00:16:16;64.54;58.07;69.13;;
64393;Laerm;50712;49.506;10.400;2023-07-31T00:16:46;64.39;59.55;68.13;;
64393;Laerm;50712;49.506;10.400;2023-07-31T00:17:17;64.53;59.43;69.04;;
64393;Laerm;50712;49.506;10.400;2023-07-31T00:17:48;63.41;49.82;68.21;;
64393;Laerm;50712;49.506;10.400;2023-07-31T00:18:18;55.30;50.61;63.29;;
64393;Laerm;50712;49.506;10.400;2023-07-31T00:18:48;54.86;50.69;60.10;;
64393;Laerm;50712;49.506;10.400;2023-07-31T00:19:19;55.47;50.00;64.00;;
64393;Laerm;50712;49.506;10.400;2023-07-31T00:19:49;60.23;49.33;66.30;;
64393;Laerm;50712;49.506;10.400;2023-07-31T00:20:21;58.49;48.95;66.15;;
64393;Laerm;50712;49.506;10.400;2023-07-31T00:20:51;52.43;48.58;61.19;;
64393;Laerm;50712;49.506;10.400;2023-07-31T00:21:22;59.65;48.86;66.73;;
64393;Laerm;50712;49.506;10.400;2023-07-31T00:21:52;58.89;51.92;64.73;;
64393;Laerm;50712;49.506;10.400;2023-07-31T00:22:22;58.48;51.50;64.02;;
64393;Laerm;50712;49.506;10.400;2023-07-31T00:22:53;59.72;51.53;65.94;;
64393;Laerm;50712;49.506;10.400;2023-07-31T00:23:23;60.87;57.11;66.82;;
64393;Laerm;50712;49.506;10.400;2023-07-31T00:23:53;58.23;53.18;64.92;;
64393;Laerm;50712;49.506;10.400;2023-07-31T00:24:23;61.23;54.75;66.89;;
64393;Laerm;50712;49.506;10.400;2023-07-31T00:24:54;61.17;56.14;66.78;;
64393;Laerm;50712;49.506;10.400;2023-07-31T00:25:24;62.74;56.49;70.35;;
64393;Laerm;50712;49.506;10.400;2023-07-31T00:25:54;60.02;51.24;65.95;;
64393;Laerm;50712;49.506;10.400;2023-07-31T00:26:25;58.06;49.30;66.10;;
64393;Laerm;50712;49.506;10.400;2023-07-31T00:26:55;53.00;48.72;58.22;;
64393;Laerm;50712;49.506;10.400;2023-07-31T00:27:25;52.97;50.23;55.84;;
64393;Laerm;50712;49.506;10.400;2023-07-31T00:27:56;52.74;48.44;58.57;;
64393;Laerm;50712;49.506;10.400;2023-07-31T00:28:26;53.77;49.12;62.11;;
64393;Laerm;50712;49.506;10.400;2023-07-31T00:28:58;52.46;49.07;58.22;;
64393;Laerm;50712;49.506;10.400;2023-07-31T00:29:28;53.37;49.52;58.04;;
64393;Laerm;50712;49.506;10.400;2023-07-31T00:29:59;53.11;50.11;58.70;;
64393;Laerm;50712;49.506;10.400;2023-07-31T00:30:29;52.30;49.93;56.37;;
64393;Laerm;50712;49.506;10.400;2023-07-31T00:31:00;53.76;50.52;60.74;;
64393;Laerm;50712;49.506;10.400;2023-07-31T00:31:31;56.68;49.96;66.60;;
64393;Laerm;50712;49.506;10.400;2023-07-31T00:32:02;56.78;49.15;63.42;;
64393;Laerm;50712;49.506;10.400;2023-07-31T00:32:32;53.46;50.44;59.53;;
64393;Laerm;50712;49.506;10.400;2023-07-31T00:33:04;53.74;50.96;59.26;;
64393;Laerm;50712;49.506;10.400;2023-07-31T00:33:35;58.79;51.44;65.98;;
64393;Laerm;50712;49.506;10.400;2023-07-31T00:34:07;61.42;54.44;66.15;;
64393;Laerm;50712;49.506;10.400;2023-07-31T00:34:39;63.56;55.37;71.22;;
64393;Laerm;50712;49.506;10.400;2023-07-31T00:35:09;62.63;53.40;66.76;;
64393;Laerm;50712;49.506;10.400;2023-07-31T00:35:40;60.74;55.01;65.40;;
64393;Laerm;50712;49.506;10.400;2023-07-31T00:36:10;61.79;55.52;65.52;;
64393;Laerm;50712;49.506;10.400;2023-07-31T00:36:41;62.65;54.72;66.66;;
64393;Laerm;50712;49.506;10.400;2023-07-31T00:37:11;63.40;53.45;67.82;;
64393;Laerm;50712;49.506;10.400;2023-07-31T00:37:41;60.53;53.36;65.10;;
64393;Laerm;50712;49.506;10.400;2023-07-31T00:38:12;60.58;50.58;66.98;;
64393;Laerm;50712;49.506;10.400;2023-07-31T00:38:43;59.95;50.41;65.73;;
64393;Laerm;50712;49.506;10.400;2023-07-31T00:39:14;60.85;53.41;65.10;;
64393;Laerm;50712;49.506;10.400;2023-07-31T00:39:44;58.10;51.82;63.29;;
64393;Laerm;50712;49.506;10.400;2023-07-31T00:40:15;57.38;52.45;64.13;;
64393;Laerm;50712;49.506;10.400;2023-07-31T00:40:45;60.40;54.05;65.03;;
64393;Laerm;50712;49.506;10.400;2023-07-31T00:41:15;61.60;53.31;65.84;;
64393;Laerm;50712;49.506;10.400;2023-07-31T00:41:48;58.37;50.91;65.42;;
64393;Laerm;50712;49.506;10.400;2023-07-31T00:42:19;59.17;50.74;64.24;;
64393;Laerm;50712;49.506;10.400;2023-07-31T00:42:49;58.10;51.69;64.67;;
64393;Laerm;50712;49.506;10.400;2023-07-31T00:43:20;55.61;51.35;62.21;;
64393;Laerm;50712;49.506;10.400;2023-07-31T00:43:50;59.17;52.19;63.80;;
64393;Laerm;50712;49.506;10.400;2023-07-31T00:44:20;58.04;51.89;64.57;;
64393;Laerm;50712;49.506;10.400;2023-07-31T00:44:51;56.46;51.07;63.54;;
64393;Laerm;50712;49.506;10.400;2023-07-31T00:45:23;59.36;51.57;64.55;;
64393;Laerm;50712;49.506;10.400;2023-07-31T00:46:24;56.63;50.81;66.54;;
64393;Laerm;50712;49.506;10.400;2023-07-31T00:46:55;55.60;50.58;70.94;;
64393;Laerm;50712;49.506;10.400;2023-07-31T00:47:26;55.39;51.40;61.74;;
64393;Laerm;50712;49.506;10.400;2023-07-31T00:47:57;57.69;53.28;63.16;;
64393;Laerm;50712;49.506;10.400;2023-07-31T00:48:28;54.65;51.50;59.52;;
64393;Laerm;50712;49.506;10.400;2023-07-31T00:48:59;56.61;51.26;63.46;;
64393;Laerm;50712;49.506;10.400;2023-07-31T00:50:00;56.76;49.16;64.93;;
64393;Laerm;50712;49.506;10.400;2023-07-31T00:50:31;56.18;52.15;61.41;;
64393;Laerm;50712;49.506;10.400;2023-07-31T00:51:02;57.44;51.69;62.83;;
64393;Laerm;50712;49.506;10.400;2023-07-31T00:51:33;58.11;52.73;62.47;;
64393;Laerm;50712;49.506;10.400;2023-07-31T00:52:03;56.56;52.48;60.92;;
64393;Laerm;50712;49.506;10.400;2023-07-31T00:52:35;56.62;53.10;60.38;;
64393;Laerm;50712;49.506;10.400;2023-07-31T00:53:06;56.73;50.74;61.69;;
64393;Laerm;50712;49.506;10.400;2023-07-31T00:53:37;56.98;48.79;59.73;;
64393;Laerm;50712;49.506;10.400;2023-07-31T00:54:11;53.98;50.46;58.32;;
64393;Laerm;50712;49.506;10.400;2023-07-31T00:54:43;53.41;49.36;59.37;;
64393;Laerm;50712;49.506;10.400;2023-07-31T00:55:13;55.27;50.22;59.57;;
64393;Laerm;50712;49.506;10.400;2023-07-31T00:55:44;52.95;50.41;58.63;;
64393;Laerm;50712;49.506;10.400;2023-07-31T00:56:15;52.67;50.39;59.22;;
64393;Laerm;50712;49.506;10.400;2023-07-31T00:56:46;52.92;50.13;55.71;;
64393;Laerm;50712;49.506;10.400;2023-07-31T00:57:18;56.43;50.33;63.08;;
64393;Laerm;50712;49.506;10.400;2023-07-31T00:57:49;56.15;51.63;63.36;;
64393;Laerm;50712;49.506;10.400;2023-07-31T00:58:22;56.99;52.38;62.48;;
64393;Laerm;50712;49.506;10.400;2023-07-31T00:58:52;54.97;52.34;61.24;;
64393;Laerm;50712;49.506;10.400;2023-07-31T00:59:22;55.38;51.33;61.10;;
64393;Laerm;50712;49.506;10.400;2023-07-31T00:59:53;53.87;51.65;56.88;;
64393;Laerm;50712;49.506;10.400;2023-07-31T01:00:24;55.24;52.17;62.64;;
64393;Laerm;50712;49.506;10.400;2023-07-31T01:00:54;55.78;50.71;65.35;;
64393;Laerm;50712;49.506;10.400;2023-07-31T01:01:24;55.84;52.71;62.46;;
64393;Laerm;50712;49.506;10.400;2023-07-31T01:01:55;59.56;54.51;65.34;;
64393;Laerm;50712;49.506;10.400;2023-07-31T01:02:25;59.25;54.30;63.60;;
64393;Laerm;50712;49.506;10.400;2023-07-31T01:02:56;60.26;51.86;66.73;;
64393;Laerm;50712;49.506;10.400;2023-07-31T01:03:27;63.74;60.75;67.22;;
64393;Laerm;50712;49.506;10.400;2023-07-31T01:03:57;63.37;51.00;66.83;;
64393;Laerm;50712;49.506;10.400;2023-07-31T01:04:28;60.88;52.73;67.59;;
64393;Laerm;50712;49.506;10.400;2023-07-31T01:04:59;60.89;55.16;66.95;;
64393;Laerm;50712;49.506;10.400;2023-07-31T01:06:21;56.52;51.71;65.18;;
64393;Laerm;50712;49.506;10.400;2023-07-31T01:07:08;61.86;51.95;69.12;;
64393;Laerm;50712;49.506;10.400;2023-07-31T01:07:53;57.41;50.25;66.72;;
64393;Laerm;50712;49.506;10.400;2023-07-31T01:08:33;54.89;49.39;60.44;;
64393;Laerm;50712;49.506;10.400;2023-07-31T01:09:21;57.09;49.08;64.28;;
64393;Laerm;50712;49.506;10.400;2023-07-31T01:10:32;60.84;50.22;73.04;;
64393;Laerm;50712;49.506;10.400;2023-07-31T01:11:14;55.98;48.86;66.39;;
64393;Laerm;50712;49.506;10.400;2023-07-31T01:11:50;59.87;49.61;65.85;;
64393;Laerm;50712;49.506;10.400;2023-07-31T01:12:23;66.71;50.73;73.66;;
64393;Laerm;50712;49.506;10.400;2023-07-31T01:12:54;64.29;49.34;73.56;;
64393;Laerm;50712;49.506;10.400;2023-07-31T01:13:26;53.67;48.95;62.53;;
64393;Laerm;50712;49.506;10.400;2023-07-31T01:13:57;53.42;48.56;62.70;;
64393;Laerm;50712;49.506;10.400;2023-07-31T01:14:28;52.70;48.38;61.60;;
64393;Laerm;50712;49.506;10.400;2023-07-31T01:15:33;61.93;50.69;71.41;;
64393;Laerm;50712;49.506;10.400;2023-07-31T01:16:03;59.10;51.33;69.87;;
64393;Laerm;50712;49.506;10.400;2023-07-31T01:16:34;54.03;48.59;62.93;;
64393;Laerm;50712;49.506;10.400;2023-07-31T01:17:04;55.70;50.09;65.72;;
64393;Laerm;50712;49.506;10.400;2023-07-31T01:17:34;54.92;51.44;60.32;;
64393;Laerm;50712;49.506;10.400;2023-07-31T01:18:05;56.12;50.72;63.11;;
64393;Laerm;50712;49.506;10.400;2023-07-31T01:18:35;58.84;51.82;61.78;;
64393;Laerm;50712;49.506;10.400;2023-07-31T01:19:07;54.09;49.05;61.74;;
64393;Laerm;50712;49.506;10.400;2023-07-31T01:19:39;56.75;49.83;69.32;;
64393;Laerm;50712;49.506;10.400;2023-07-31T01:20:13;59.93;52.60;72.95;;
64393;Laerm;50712;49.506;10.400;2023-07-31T01:20:51;59.45;51.31;72.96;;
64393;Laerm;50712;49.506;10.400;2023-07-31T01:24:23;55.99;51.37;66.36;;
64393;Laerm;50712;49.506;10.400;2023-07-31T01:26:25;64.27;51.64;71.56;;
64393;Laerm;50712;49.506;10.400;2023-07-31T01:27:04;59.53;50.03;72.81;;
64393;Laerm;50712;49.506;10.400;2023-07-31T01:27:44;60.55;49.17;72.91;;
64393;Laerm;50712;49.506;10.400;2023-07-31T01:28:20;58.47;50.47;71.38;;
64393;Laerm;50712;49.506;10.400;2023-07-31T01:30:03;61.12;51.90;67.94;;
64393;Laerm;50712;49.506;10.400;2023-07-31T01:30:44;58.71;51.52;68.64;;
64393;Laerm;50712;49.506;10.400;2023-07-31T01:31:22;55.71;51.06;61.67;;
64393;Laerm;50712;49.506;10.400;2023-07-31T01:31:54;61.70;52.82;70.19;;
64393;Laerm;50712;49.506;10.400;2023-07-31T01:32:28;59.93;54.39;67.19;;
64393;Laerm;50712;49.506;10.400;2023-07-31T01:32:59;57.47;53.70;64.84;;
64393;Laerm;50712;49.506;10.400;2023-07-31T01:33:34;59.16;54.60;63.72;;
64393;Laerm;50712;49.506;10.400;2023-07-31T01:34:06;59.25;53.67;69.27;;
64393;Laerm;50712;49.506;10.400;2023-07-31T01:34:39;59.73;52.02;63.71;;
64393;Laerm;50712;49.506;10.400;2023-07-31T01:35:09;61.30;55.21;65.95;;
64393;Laerm;50712;49.506;10.400;2023-07-31T01:35:44;61.06;54.75;67.06;;
64393;Laerm;50712;49.506;10.400;2023-07-31T01:36:14;59.24;51.97;66.80;;
64393;Laerm;50712;49.506;10.400;2023-07-31T01:36:45;59.34;55.30;64.32;;
64393;Laerm;50712;49.506;10.400;2023-07-31T01:37:15;58.23;54.54;65.76;;
64393;Laerm;50712;49.506;10.400;2023-07-31T01:37:45;54.13;49.50;60.19;;
64393;Laerm;50712;49.506;10.400;2023-07-31T01:38:20;54.24;50.47;61.75;;
64393;Laerm;50712;49.506;10.400;2023-07-31T01:38:51;54.74;51.88;60.25;;
64393;Laerm;50712;49.506;10.400;2023-07-31T01:39:21;55.49;51.03;61.08;;
64393;Laerm;50712;49.506;10.400;2023-07-31T01:39:52;54.88;50.71;59.30;;
64393;Laerm;50712;49.506;10.400;2023-07-31T01:40:22;55.37;51.65;60.60;;
64393;Laerm;50712;49.506;10.400;2023-07-31T01:40:53;57.66;49.58;69.43;;
64393;Laerm;50712;49.506;10.400;2023-07-31T01:41:23;59.26;50.19;69.33;;
64393;Laerm;50712;49.506;10.400;2023-07-31T01:41:54;55.77;51.51;67.35;;
64393;Laerm;50712;49.506;10.400;2023-07-31T01:42:24;56.71;53.40;62.11;;
64393;Laerm;50712;49.506;10.400;2023-07-31T01:42:55;58.31;54.73;66.71;;
64393;Laerm;50712;49.506;10.400;2023-07-31T01:43:25;58.60;55.14;66.87;;
64393;Laerm;50712;49.506;10.400;2023-07-31T01:43:55;57.72;53.24;65.66;;
64393;Laerm;50712;49.506;10.400;2023-07-31T01:44:58;62.51;52.74;72.54;;
64393;Laerm;50712;49.506;10.400;2023-07-31T01:45:29;58.50;53.92;63.37;;
64393;Laerm;50712;49.506;10.400;2023-07-31T01:45:59;58.84;51.50;66.56;;
64393;Laerm;50712;49.506;10.400;2023-07-31T01:46:29;58.28;52.54;63.63;;
64393;Laerm;50712;49.506;10.400;2023-07-31T01:47:00;57.68;52.20;63.18;;
64393;Laerm;50712;49.506;10.400;2023-07-31T01:47:30;61.34;51.52;75.66;;
64393;Laerm;50712;49.506;10.400;2023-07-31T01:48:01;63.29;54.16;71.88;;
64393;Laerm;50712;49.506;10.400;2023-07-31T01:48:31;56.84;51.29;63.03;;
64393;Laerm;50712;49.506;10.400;2023-07-31T01:49:05;58.26;52.08;66.44;;
64393;Laerm;50712;49.506;10.400;2023-07-31T01:49:36;56.40;51.77;63.31;;
64393;Laerm;50712;49.506;10.400;2023-07-31T01:50:06;57.71;51.82;68.34;;
64393;Laerm;50712;49.506;10.400;2023-07-31T01:50:37;59.10;51.54;68.62;;
64393;Laerm;50712;49.506;10.400;2023-07-31T01:51:07;58.77;51.52;67.82;;
64393;Laerm;50712;49.506;10.400;2023-07-31T01:51:38;60.92;50.83;67.95;;
64393;Laerm;50712;49.506;10.400;2023-07-31T01:52:08;57.68;50.77;66.70;;
64393;Laerm;50712;49.506;10.400;2023-07-31T01:52:38;58.11;50.87;66.61;;
64393;Laerm;50712;49.506;10.400;2023-07-31T01:53:09;59.79;51.76;73.26;;
64393;Laerm;50712;49.506;10.400;2023-07-31T01:53:39;60.39;53.53;69.11;;
64393;Laerm;50712;49.506;10.400;2023-07-31T01:54:09;64.73;52.13;73.50;;
64393;Laerm;50712;49.506;10.400;2023-07-31T01:54:41;68.29;62.42;75.91;;
64393;Laerm;50712;49.506;10.400;2023-07-31T01:55:12;66.46;52.91;71.19;;
64393;Laerm;50712;49.506;10.400;2023-07-31T01:55:53;67.76;56.02;74.10;;
64393;Laerm;50712;49.506;10.400;2023-07-31T01:56:23;67.69;50.88;75.64;;
64393;Laerm;50712;49.506;10.400;2023-07-31T01:56:54;62.50;52.56;66.70;;
64393;Laerm;50712;49.506;10.400;2023-07-31T01:57:24;60.68;52.25;68.63;;
64393;Laerm;50712;49.506;10.400;2023-07-31T01:57:55;60.04;56.21;64.30;;
64393;Laerm;50712;49.506;10.400;2023-07-31T01:58:25;57.55;51.62;70.02;;
64393;Laerm;50712;49.506;10.400;2023-07-31T01:58:55;60.34;51.12;69.43;;
64393;Laerm;50712;49.506;10.400;2023-07-31T01:59:26;62.60;50.42;70.76;;
64393;Laerm;50712;49.506;10.400;2023-07-31T01:59:56;62.38;52.53;73.47;;
64393;Laerm;50712;49.506;10.400;2023-07-31T02:00:26;60.79;52.57;72.65;;
64393;Laerm;50712;49.506;10.400;2023-07-31T02:00:57;67.12;56.16;72.33;;
64393;Laerm;50712;49.506;10.400;2023-07-31T02:01:27;68.59;54.13;74.91;;
64393;Laerm;50712;49.506;10.400;2023-07-31T02:01:57;60.06;54.70;66.93;;
64393;Laerm;50712;49.506;10.400;2023-07-31T02:02:28;60.19;53.37;66.98;;
64393;Laerm;50712;49.506;10.400;2023-07-31T02:02:59;57.82;53.14;66.87;;
64393;Laerm;50712;49.506;10.400;2023-07-31T02:03:30;62.18;54.14;68.52;;
64393;Laerm;50712;49.506;10.400;2023-07-31T02:04:00;65.74;55.74;76.07;;
64393;Laerm;50712;49.506;10.400;2023-07-31T02:04:30;67.73;54.05;74.41;;
64393;Laerm;50712;49.506;10.400;2023-07-31T02:05:01;65.29;54.82;73.32;;
64393;Laerm;50712;49.506;10.400;2023-07-31T02:05:31;66.08;55.46;75.23;;
64393;Laerm;50712;49.506;10.400;2023-07-31T02:06:02;67.43;55.07;76.10;;
64393;Laerm;50712;49.506;10.400;2023-07-31T02:06:32;70.38;53.32;76.06;;
64393;Laerm;50712;49.506;10.400;2023-07-31T02:07:02;63.42;51.37;73.60;;
64393;Laerm;50712;49.506;10.400;2023-07-31T02:07:33;63.72;55.24;69.49;;
64393;Laerm;50712;49.506;10.400;2023-07-31T02:08:03;60.23;49.93;66.44;;
64393;Laerm;50712;49.506;10.400;2023-07-31T02:08:34;59.71;54.16;64.86;;
64393;Laerm;50712;49.506;10.400;2023-07-31T02:09:04;58.00;53.09;63.58;;
64393;Laerm;50712;49.506;10.400;2023-07-31T02:09:36;56.46;49.53;64.58;;
64393;Laerm;50712;49.506;10.400;2023-07-31T02:10:06;65.43;51.52;71.43;;
64393;Laerm;50712;49.506;10.400;2023-07-31T02:10:37;59.14;50.89;70.65;;
64393;Laerm;50712;49.506;10.400;2023-07-31T02:11:07;55.70;49.28;66.84;;
64393;Laerm;50712;49.506;10.400;2023-07-31T02:11:37;54.04;48.34;66.13;;
64393;Laerm;50712;49.506;10.400;2023-07-31T02:12:08;57.43;49.68;77.97;;
64393;Laerm;50712;49.506;10.400;2023-07-31T02:12:38;58.07;49.66;70.48;;
64393;Laerm;50712;49.506;10.400;2023-07-31T02:13:09;57.79;50.95;64.09;;
64393;Laerm;50712;49.506;10.400;2023-07-31T02:13:39;59.43;52.00;69.06;;
64393;Laerm;50712;49.506;10.400;2023-07-31T02:14:09;60.11;50.83;68.51;;
64393;Laerm;50712;49.506;10.400;2023-07-31T02:14:40;57.50;51.74;65.51;;
64393;Laerm;50712;49.506;10.400;2023-07-31T02:15:11;58.57;52.49;64.93;;
64393;Laerm;50712;49.506;10.400;2023-07-31T02:15:41;59.08;52.58;66.18;;
64393;Laerm;50712;49.506;10.400;2023-07-31T02:16:11;58.50;50.49;64.82;;
64393;Laerm;50712;49.506;10.400;2023-07-31T02:16:42;58.28;50.30;63.69;;
64393;Laerm;50712;49.506;10.400;2023-07-31T02:17:12;59.30;50.06;69.47;;
64393;Laerm;50712;49.506;10.400;2023-07-31T02:17:43;60.48;49.57;70.75;;
64393;Laerm;50712;49.506;10.400;2023-07-31T02:18:13;66.61;49.72;76.74;;
64393;Laerm;50712;49.506;10.400;2023-07-31T02:18:44;58.50;48.97;67.82;;
64393;Laerm;50712;49.506;10.400;2023-07-31T02:19:14;57.38;48.70;67.73;;
64393;Laerm;50712;49.506;10.400;2023-07-31T02:19:44;57.75;49.25;68.04;;
64393;Laerm;50712;49.506;10.400;2023-07-31T02:20:15;59.51;48.50;67.56;;
64393;Laerm;50712;49.506;10.400;2023-07-31T02:20:51;58.33;49.24;67.46;;
64393;Laerm;50712;49.506;10.400;2023-07-31T02:21:22;58.13;49.54;69.05;;
64393;Laerm;50712;49.506;10.400;2023-07-31T02:21:52;58.18;49.45;68.06;;
64393;Laerm;50712;49.506;10.400;2023-07-31T02:22:23;57.90;49.81;66.11;;
64393;Laerm;50712;49.506;10.400;2023-07-31T02:22:53;61.10;51.06;70.82;;
64393;Laerm;50712;49.506;10.400;2023-07-31T02:23:24;59.91;51.59;68.84;;
64393;Laerm;50712;49.506;10.400;2023-07-31T02:23:54;58.16;51.33;65.69;;
64393;Laerm;50712;49.506;10.400;2023-07-31T02:24:25;58.86;49.94;66.74;;
64393;Laerm;50712;49.506;10.400;2023-07-31T02:24:55;56.17;49.32;65.39;;
64393;Laerm;50712;49.506;10.400;2023-07-31T02:25:26;54.85;48.38;64.18;;
64393;Laerm;50712;49.506;10.400;2023-07-31T02:25:57;56.73;48.81;67.65;;
64393;Laerm;50712;49.506;10.400;2023-07-31T02:26:27;57.13;48.19;65.77;;
64393;Laerm;50712;49.506;10.400;2023-07-31T02:26:57;59.30;50.81;73.54;;
64393;Laerm;50712;49.506;10.400;2023-07-31T02:27:28;60.94;50.80;73.48;;
64393;Laerm;50712;49.506;10.400;2023-07-31T02:27:58;59.44;51.62;71.41;;
64393;Laerm;50712;49.506;10.400;2023-07-31T02:28:29;60.67;50.83;70.76;;
64393;Laerm;50712;49.506;10.400;2023-07-31T02:29:01;62.60;50.61;72.23;;
64393;Laerm;50712;49.506;10.400;2023-07-31T02:29:31;62.91;50.14;72.14;;
64393;Laerm;50712;49.506;10.400;2023-07-31T02:30:02;64.64;51.49;72.68;;
64393;Laerm;50712;49.506;10.400;2023-07-31T02:30:32;64.71;51.32;73.72;;
64393;Laerm;50712;49.506;10.400;2023-07-31T02:31:02;60.39;51.45;66.17;;
64393;Laerm;50712;49.506;10.400;2023-07-31T02:31:33;56.75;50.87;66.32;;
64393;Laerm;50712;49.506;10.400;2023-07-31T02:32:03;55.71;50.22;68.06;;
64393;Laerm;50712;49.506;10.400;2023-07-31T02:32:34;55.04;50.38;61.02;;
64393;Laerm;50712;49.506;10.400;2023-07-31T02:33:05;54.47;50.70;61.20;;
64393;Laerm;50712;49.506;10.400;2023-07-31T02:33:35;54.71;50.53;62.84;;
64393;Laerm;50712;49.506;10.400;2023-07-31T02:34:06;59.32;52.36;68.91;;
64393;Laerm;50712;49.506;10.400;2023-07-31T02:34:36;61.00;50.79;69.74;;
64393;Laerm;50712;49.506;10.400;2023-07-31T02:35:07;61.32;53.51;70.88;;
64393;Laerm;50712;49.506;10.400;2023-07-31T02:35:37;57.00;51.52;69.60;;
64393;Laerm;50712;49.506;10.400;2023-07-31T02:36:08;55.56;51.61;66.53;;
64393;Laerm;50712;49.506;10.400;2023-07-31T02:36:38;60.28;52.42;73.60;;
64393;Laerm;50712;49.506;10.400;2023-07-31T02:37:08;62.44;55.01;69.94;;
64393;Laerm;50712;49.506;10.400;2023-07-31T02:37:38;58.93;50.49;68.09;;
64393;Laerm;50712;49.506;10.400;2023-07-31T02:38:09;66.48;50.56;79.94;;
64393;Laerm;50712;49.506;10.400;2023-07-31T02:38:39;59.67;53.29;63.31;;
64393;Laerm;50712;49.506;10.400;2023-07-31T02:39:40;54.56;48.59;68.76;;
64393;Laerm;50712;49.506;10.400;2023-07-31T02:40:11;57.35;50.07;68.35;;
64393;Laerm;50712;49.506;10.400;2023-07-31T02:40:42;59.44;53.00;67.51;;
64393;Laerm;50712;49.506;10.400;2023-07-31T02:41:12;62.58;55.07;68.82;;
64393;Laerm;50712;49.506;10.400;2023-07-31T02:41:43;58.11;51.39;64.62;;
64393;Laerm;50712;49.506;10.400;2023-07-31T02:42:14;55.93;51.45;64.62;;
64393;Laerm;50712;49.506;10.400;2023-07-31T02:42:44;58.10;49.89;65.14;;
64393;Laerm;50712;49.506;10.400;2023-07-31T02:43:16;54.63;49.82;60.14;;
64393;Laerm;50712;49.506;10.400;2023-07-31T02:43:46;59.78;49.16;73.01;;
64393;Laerm;50712;49.506;10.400;2023-07-31T02:44:16;58.73;49.93;67.27;;
64393;Laerm;50712;49.506;10.400;2023-07-31T02:44:47;59.33;50.95;69.49;;
64393;Laerm;50712;49.506;10.400;2023-07-31T02:45:17;54.67;51.86;68.82;;
64393;Laerm;50712;49.506;10.400;2023-07-31T02:45:52;54.13;51.62;65.72;;
64393;Laerm;50712;49.506;10.400;2023-07-31T02:46:22;53.69;51.45;62.47;;
64393;Laerm;50712;49.506;10.400;2023-07-31T02:46:54;55.51;51.83;72.29;;
64393;Laerm;50712;49.506;10.400;2023-07-31T02:47:25;56.21;52.01;62.93;;
64393;Laerm;50712;49.506;10.400;2023-07-31T02:47:58;64.17;52.86;75.15;;
64393;Laerm;50712;49.506;10.400;2023-07-31T02:48:28;71.42;52.16;77.12;;
64393;Laerm;50712;49.506;10.400;2023-07-31T02:48:58;56.73;51.80;66.91;;
64393;Laerm;50712;49.506;10.400;2023-07-31T02:49:29;57.10;51.87;67.14;;
64393;Laerm;50712;49.506;10.400;2023-07-31T02:49:59;65.56;53.89;69.27;;
64393;Laerm;50712;49.506;10.400;2023-07-31T02:50:30;65.16;55.64;67.45;;
64393;Laerm;50712;49.506;10.400;2023-07-31T02:51:00;63.77;58.36;68.58;;
64393;Laerm;50712;49.506;10.400;2023-07-31T02:51:31;62.61;51.56;68.21;;
64393;Laerm;50712;49.506;10.400;2023-07-31T02:52:01;56.38;48.65;64.48;;
64393;Laerm;50712;49.506;10.400;2023-07-31T02:52:32;56.22;49.23;74.04;;
64393;Laerm;50712;49.506;10.400;2023-07-31T02:53:02;62.16;50.59;72.89;;
64393;Laerm;50712;49.506;10.400;2023-07-31T02:53:32;56.05;50.48;63.72;;
64393;Laerm;50712;49.506;10.400;2023-07-31T02:54:03;59.07;52.84;67.41;;
64393;Laerm;50712;49.506;10.400;2023-07-31T02:54:33;62.67;52.66;67.95;;
64393;Laerm;50712;49.506;10.400;2023-07-31T02:55:03;65.02;52.70;73.53;;
64393;Laerm;50712;49.506;10.400;2023-07-31T02:55:34;65.60;53.94;78.31;;
64393;Laerm;50712;49.506;10.400;2023-07-31T02:56:04;64.22;55.22;73.49;;
64393;Laerm;50712;49.506;10.400;2023-07-31T02:56:35;61.50;53.47;77.72;;
64393;Laerm;50712;49.506;10.400;2023-07-31T02:57:05;59.74;51.89;70.61;;
64393;Laerm;50712;49.506;10.400;2023-07-31T02:57:35;60.68;51.16;71.93;;
64393;Laerm;50712;49.506;10.400;2023-07-31T02:58:36;57.92;50.51;65.14;;
64393;Laerm;50712;49.506;10.400;2023-07-31T02:59:06;58.85;51.68;72.99;;
64393;Laerm;50712;49.506;10.400;2023-07-31T02:59:37;58.14;49.84;68.89;;
64393;Laerm;50712;49.506;10.400;2023-07-31T03:00:08;58.58;48.84;66.14;;
64393;Laerm;50712;49.506;10.400;2023-07-31T03:00:43;59.02;50.25;66.62;;
64393;Laerm;50712;49.506;10.400;2023-07-31T03:01:13;59.35;52.60;67.52;;
64393;Laerm;50712;49.506;10.400;2023-07-31T03:01:44;63.38;52.66;67.43;;
64393;Laerm;50712;49.506;10.400;2023-07-31T03:02:15;62.59;55.08;66.59;;